createdAt,value
2017-06-19T03:31:07.713Z,18.70
2017-06-19T03:33:35.350Z,18.60
2017-06-19T03:36:03.004Z,18.60
2017-06-19T03:38:30.995Z,18.40
2017-06-19T03:40:59.423Z,18.30
2017-06-19T03:43:27.062Z,18.30
2017-06-19T03:45:55.119Z,18.20
2017-06-19T03:48:23.519Z,18.20
2017-06-19T03:50:51.177Z,18.20
2017-06-19T03:53:19.222Z,18.30
2017-06-19T03:55:47.633Z,18.40
2017-06-19T03:58:15.288Z,18.40
2017-06-19T04:00:42.973Z,18.30
2017-06-19T04:03:10.640Z,18.50
2017-06-19T04:05:38.378Z,18.70
2017-06-19T04:08:06.077Z,18.80
2017-06-19T04:10:33.772Z,18.90
2017-06-19T04:13:02.185Z,19.10
2017-06-19T04:15:30.166Z,19.10
2017-06-19T04:17:57.919Z,19.30
2017-06-19T04:20:25.552Z,19.40
2017-06-19T04:22:53.975Z,19.30
2017-06-19T04:25:21.632Z,19.30
2017-06-19T04:27:49.297Z,19.20
2017-06-19T04:30:16.949Z,19.20
2017-06-19T04:32:44.606Z,19.30
2017-06-19T04:35:12.257Z,19.30
2017-06-19T04:37:39.990Z,19.40
2017-06-19T04:40:07.630Z,19.60
2017-06-19T04:42:35.647Z,19.60
2017-06-19T04:45:03.299Z,19.40
2017-06-19T04:47:31.713Z,19.40
2017-06-19T04:49:59.508Z,19.40
2017-06-19T04:52:27.180Z,19.50
2017-06-19T04:54:55.276Z,19.60
2017-06-19T04:57:23.677Z,19.70
2017-06-19T04:59:51.312Z,19.80
2017-06-19T05:02:21.232Z,20.00
2017-06-19T05:04:49.866Z,20.10
2017-06-19T05:07:17.500Z,20.10
2017-06-19T05:09:45.565Z,20.20
2017-06-19T05:12:13.208Z,20.20
2017-06-19T05:14:41.629Z,20.40
2017-06-19T05:17:10.595Z,20.30
2017-06-19T05:19:38.241Z,20.40
2017-06-19T05:22:06.657Z,20.60
2017-06-19T05:24:34.322Z,20.50
2017-06-19T05:27:01.968Z,20.60
2017-06-19T05:29:30.016Z,20.60
2017-06-19T05:31:58.444Z,20.80
2017-06-19T05:34:26.104Z,20.70
2017-06-19T05:36:54.237Z,20.70
2017-06-19T05:39:22.646Z,20.80
2017-06-19T05:41:50.295Z,20.80
2017-06-19T05:44:18.488Z,20.80
2017-06-19T05:46:46.140Z,20.80
2017-06-19T05:49:13.772Z,21.00
2017-06-19T05:51:42.567Z,21.30
2017-06-19T05:54:10.364Z,21.20
2017-06-19T05:56:38.025Z,21.40
2017-06-19T05:59:06.049Z,21.50
2017-06-19T06:01:34.477Z,21.60
2017-06-19T06:04:02.140Z,21.60
2017-06-19T06:06:30.163Z,21.80
2017-06-19T06:08:58.577Z,22.10
2017-06-19T06:11:26.234Z,22.10
2017-06-19T06:13:54.219Z,22.20
2017-06-19T06:16:21.870Z,22.40
2017-06-19T06:18:49.528Z,22.60
2017-06-19T06:21:17.714Z,22.60
2017-06-19T06:23:45.372Z,22.60
2017-06-19T06:26:13.013Z,22.90
2017-06-19T06:28:41.078Z,23.00
2017-06-19T06:31:08.730Z,23.10
2017-06-19T06:33:37.147Z,23.50
2017-06-19T06:36:05.243Z,23.40
2017-06-19T06:38:32.885Z,23.40
2017-06-19T06:41:00.760Z,23.60
2017-06-19T06:43:28.745Z,23.70
2017-06-19T06:45:56.407Z,23.90
2017-06-19T06:48:24.058Z,24.10
2017-06-19T06:50:52.094Z,24.10
2017-06-19T06:53:19.733Z,24.40
2017-06-19T06:55:48.137Z,24.40
2017-06-19T06:58:16.192Z,24.40
2017-06-19T07:00:44.580Z,24.60
2017-06-19T07:03:12.232Z,24.60
2017-06-19T07:05:41.016Z,24.80
2017-06-19T07:08:09.431Z,24.80
2017-06-19T07:10:37.091Z,24.80
2017-06-19T07:13:05.091Z,25.10
2017-06-19T07:15:32.920Z,25.20
2017-06-19T07:18:00.557Z,25.50
2017-06-19T07:20:29.300Z,25.60
2017-06-19T07:22:56.943Z,25.60
2017-06-19T07:25:24.584Z,25.90
2017-06-19T07:27:52.638Z,26.00
2017-06-19T07:30:21.063Z,25.90
2017-06-19T07:32:48.710Z,25.90
2017-06-19T07:35:16.741Z,25.40
2017-06-19T07:37:45.149Z,26.10
2017-06-19T07:40:12.823Z,26.10
2017-06-19T07:42:40.957Z,26.30
2017-06-19T07:45:09.425Z,26.60
2017-06-19T07:47:37.076Z,26.50
2017-06-19T07:50:05.193Z,26.80
2017-06-19T07:52:32.859Z,26.80
2017-06-19T07:55:00.505Z,26.20
2017-06-19T07:57:28.700Z,26.60
2017-06-19T07:59:56.360Z,26.70
2017-06-19T08:02:24.007Z,26.90
2017-06-19T08:04:51.694Z,27.30
2017-06-19T08:07:19.361Z,27.10
2017-06-19T08:09:47.398Z,27.60
2017-06-19T08:12:15.059Z,28.00
2017-06-19T08:14:42.858Z,27.50
2017-06-19T08:17:10.562Z,28.00
2017-06-19T08:19:38.224Z,28.40
2017-06-19T08:22:07.671Z,28.80
2017-06-19T08:24:35.422Z,28.40
2017-06-19T08:27:03.495Z,28.60
2017-06-19T08:29:31.134Z,29.00
2017-06-19T08:31:59.545Z,30.20
2017-06-19T08:34:27.599Z,30.10
2017-06-19T08:36:55.266Z,29.90
2017-06-19T08:39:22.915Z,30.60
2017-06-19T08:41:51.389Z,31.30
2017-06-19T08:44:19.802Z,31.30
2017-06-19T08:46:47.452Z,31.30
2017-06-19T08:49:15.140Z,31.80
2017-06-19T08:51:42.803Z,33.00
2017-06-19T08:54:10.442Z,33.20
2017-06-19T08:56:38.104Z,33.20
2017-06-19T08:59:06.787Z,33.00
2017-06-19T09:01:34.804Z,33.50
2017-06-19T09:04:02.447Z,34.50
2017-06-19T09:06:30.092Z,34.70
2017-06-19T09:08:57.758Z,35.00
2017-06-19T09:11:25.404Z,35.40
2017-06-19T09:13:53.139Z,36.60
2017-06-19T09:16:21.565Z,39.50
2017-06-19T09:18:49.244Z,39.40
2017-06-19T09:21:16.898Z,39.50
2017-06-19T09:23:45.611Z,40.50
2017-06-19T09:26:13.274Z,41.10
2017-06-19T09:28:41.233Z,42.50
2017-06-19T09:31:08.870Z,42.80
2017-06-19T09:33:36.497Z,42.40
2017-06-19T09:36:04.994Z,43.10
2017-06-19T09:38:32.649Z,43.00
2017-06-19T09:41:00.297Z,44.00
2017-06-19T09:43:28.722Z,43.60
2017-06-19T09:45:56.470Z,43.60
2017-06-19T09:48:24.119Z,42.80
2017-06-19T09:50:51.795Z,42.60
2017-06-19T09:53:19.450Z,43.00
2017-06-19T09:55:47.212Z,43.80
2017-06-19T09:58:14.913Z,43.60
2017-06-19T10:00:42.590Z,42.80
2017-06-19T10:03:10.261Z,43.90
2017-06-19T10:05:37.926Z,42.40
2017-06-19T10:08:05.910Z,43.30
2017-06-19T10:10:34.307Z,45.00
2017-06-19T10:13:01.972Z,44.90
2017-06-19T10:15:29.629Z,42.40
2017-06-19T10:17:57.289Z,41.20
2017-06-19T10:20:24.955Z,40.10
2017-06-19T10:22:52.606Z,39.20
2017-06-19T10:25:21.074Z,39.90
2017-06-19T10:27:49.471Z,39.50
2017-06-19T10:30:17.462Z,39.50
2017-06-19T10:32:45.121Z,38.90
2017-06-19T10:35:12.766Z,37.70
2017-06-19T10:37:40.467Z,37.10
2017-06-19T10:40:08.138Z,36.80
2017-06-19T10:42:35.812Z,36.70
2017-06-19T10:45:03.451Z,36.70
2017-06-19T10:47:31.267Z,36.30
2017-06-19T10:50:00.009Z,35.00
2017-06-19T10:52:28.094Z,35.00
2017-06-19T10:54:55.814Z,34.60
2017-06-19T10:57:23.873Z,34.70
2017-06-19T10:59:51.511Z,34.10
2017-06-19T11:02:19.919Z,34.30
2017-06-19T11:04:47.590Z,34.30
2017-06-19T11:07:15.265Z,33.70
2017-06-19T11:09:42.932Z,33.30
2017-06-19T11:12:10.582Z,32.70
2017-06-19T11:14:38.348Z,32.70
2017-06-19T11:17:06.004Z,33.10
2017-06-19T11:19:33.674Z,33.20
2017-06-19T11:22:01.395Z,32.90
2017-06-19T11:24:30.202Z,32.50
2017-06-19T11:26:57.847Z,32.50
2017-06-19T11:29:26.242Z,31.70
2017-06-19T11:31:53.975Z,31.70
2017-06-19T11:34:22.925Z,32.10
2017-06-19T11:36:50.580Z,32.00
2017-06-19T11:39:18.223Z,32.10
2017-06-19T11:41:45.973Z,31.70
2017-06-19T11:44:14.517Z,31.70
2017-06-19T11:46:42.381Z,31.70
2017-06-19T11:49:10.046Z,31.80
2017-06-19T11:51:37.700Z,31.60
2017-06-19T11:54:05.381Z,31.70
2017-06-19T11:56:33.093Z,32.00
2017-06-19T11:59:00.788Z,31.80
2017-06-19T12:01:28.430Z,31.60
2017-06-19T12:03:56.415Z,31.20
2017-06-19T12:06:24.070Z,31.30
2017-06-19T12:08:51.716Z,31.30
2017-06-19T12:11:19.378Z,31.70
2017-06-19T12:13:47.101Z,31.90
2017-06-19T12:16:15.530Z,31.80
2017-06-19T12:18:43.236Z,31.80
2017-06-19T12:21:10.889Z,32.00
2017-06-19T12:23:38.553Z,31.90
2017-06-19T12:26:06.301Z,31.90
2017-06-19T12:28:33.961Z,32.00
2017-06-19T12:31:01.625Z,31.90
2017-06-19T12:33:29.290Z,31.80
2017-06-19T12:35:56.937Z,31.40
2017-06-19T12:38:24.630Z,31.30
2017-06-19T12:40:52.569Z,31.40
2017-06-19T12:43:20.588Z,31.20
2017-06-19T12:45:49.164Z,31.40
2017-06-19T12:48:16.864Z,31.40
2017-06-19T12:50:44.533Z,31.10
2017-06-19T12:53:12.185Z,31.10
2017-06-19T12:55:39.837Z,31.20
2017-06-19T12:58:07.529Z,31.10
2017-06-19T13:00:35.195Z,31.00
2017-06-19T13:03:02.837Z,30.70
2017-06-19T13:05:30.849Z,30.80
2017-06-19T13:07:58.493Z,31.00
2017-06-19T13:10:26.148Z,31.10
2017-06-19T13:12:53.797Z,31.00
2017-06-19T13:15:21.623Z,30.70
2017-06-19T13:17:50.194Z,30.10
2017-06-19T13:20:18.952Z,29.90
2017-06-19T13:22:47.331Z,29.90
2017-06-19T13:25:15.005Z,29.80
2017-06-19T13:27:42.719Z,30.10
2017-06-19T13:30:10.569Z,30.40
2017-06-19T13:32:38.400Z,30.80
2017-06-19T13:35:07.443Z,30.70
2017-06-19T13:37:35.096Z,30.20
2017-06-19T13:40:02.822Z,30.40
2017-06-19T13:42:30.564Z,30.50
2017-06-19T13:44:58.792Z,30.40
2017-06-19T13:47:26.586Z,30.30
2017-06-19T13:49:54.279Z,30.40
2017-06-19T13:52:21.984Z,30.60
2017-06-19T13:54:50.462Z,30.80
2017-06-19T13:57:18.143Z,30.80
2017-06-19T13:59:45.817Z,30.70
2017-06-19T14:02:13.853Z,30.60
2017-06-19T14:04:42.769Z,30.80
2017-06-19T14:07:10.560Z,30.70
2017-06-19T14:09:38.252Z,30.60
2017-06-19T14:12:05.938Z,30.60
2017-06-19T14:14:34.746Z,30.10
2017-06-19T14:17:02.472Z,30.00
2017-06-19T14:19:30.262Z,29.90
2017-06-19T14:21:58.720Z,30.50
2017-06-19T14:24:26.373Z,30.50
2017-06-19T14:26:54.067Z,30.80
2017-06-19T14:29:22.621Z,31.00
2017-06-19T14:31:50.302Z,31.00
2017-06-19T14:34:18.099Z,30.90
2017-06-19T14:36:46.277Z,30.70
2017-06-19T14:39:13.943Z,30.70
2017-06-19T14:41:41.605Z,30.70
2017-06-19T14:44:09.292Z,30.30
2017-06-19T14:46:36.942Z,30.60
2017-06-19T14:49:04.725Z,30.70
2017-06-19T14:51:32.379Z,30.70
2017-06-19T14:54:00.381Z,30.50
2017-06-19T14:56:29.809Z,30.50
2017-06-19T14:58:57.504Z,30.50
2017-06-19T15:01:26.044Z,30.50
2017-06-19T15:03:53.960Z,30.60
2017-06-19T15:06:21.721Z,30.50
2017-06-19T15:08:49.374Z,30.70
2017-06-19T15:11:17.191Z,30.80
2017-06-19T15:13:45.752Z,30.50
2017-06-19T15:16:15.541Z,30.50
2017-06-19T15:18:43.362Z,30.70
2017-06-19T15:21:17.297Z,30.60
2017-06-19T15:23:50.556Z,30.60
2017-06-19T15:26:18.549Z,30.50
2017-06-19T15:28:46.204Z,30.40
2017-06-19T15:31:13.877Z,30.50
2017-06-19T15:33:41.538Z,30.60
2017-06-19T15:36:09.184Z,30.70
2017-06-19T15:38:38.305Z,30.80
2017-06-19T15:41:06.021Z,30.60
2017-06-19T15:43:33.678Z,30.70
2017-06-19T15:46:01.318Z,30.50
2017-06-19T15:48:29.054Z,30.40
2017-06-19T15:50:56.755Z,30.30
2017-06-19T15:53:24.397Z,30.40
2017-06-19T15:55:52.404Z,30.40
2017-06-19T15:58:20.063Z,30.30
2017-06-19T16:00:47.706Z,30.40
2017-06-19T16:03:15.864Z,30.50
2017-06-19T16:05:43.511Z,30.50
2017-06-19T16:08:11.152Z,30.50
2017-06-19T16:10:39.319Z,30.50
2017-06-19T16:13:06.981Z,30.50
2017-06-19T16:15:34.649Z,30.40
2017-06-19T16:18:02.322Z,30.50
2017-06-19T16:20:29.974Z,30.60
2017-06-19T16:22:57.985Z,30.50
2017-06-19T16:25:25.636Z,30.60
2017-06-19T16:27:53.298Z,30.70
2017-06-19T16:30:21.327Z,30.60
2017-06-19T16:32:48.999Z,30.70
2017-06-19T16:35:16.646Z,30.70
2017-06-19T16:37:45.141Z,30.60
2017-06-19T16:40:12.840Z,30.60
2017-06-19T16:42:40.520Z,30.50
2017-06-19T16:45:08.207Z,30.50
2017-06-19T16:47:36.959Z,30.40
2017-06-19T16:50:04.609Z,30.30
2017-06-19T16:52:32.272Z,30.50
2017-06-19T16:55:00.546Z,30.50
2017-06-19T16:57:28.205Z,30.50
2017-06-19T16:59:55.878Z,30.40
2017-06-19T17:02:23.925Z,30.30
2017-06-19T17:04:51.568Z,30.40
2017-06-19T17:07:19.984Z,30.40
2017-06-19T17:09:48.131Z,30.40
2017-06-19T17:12:15.808Z,30.20
2017-06-19T17:14:43.451Z,30.10
2017-06-19T17:17:11.642Z,30.10
2017-06-19T17:19:39.482Z,30.10
2017-06-19T17:22:08.002Z,30.00
2017-06-19T17:24:35.993Z,30.00
2017-06-19T17:27:03.668Z,30.10
2017-06-19T17:29:31.334Z,30.00
2017-06-19T17:31:59.093Z,30.10
2017-06-19T17:34:26.753Z,30.10
2017-06-19T17:36:54.496Z,29.90
2017-06-19T17:39:22.219Z,29.80
2017-06-19T17:41:49.980Z,29.80
2017-06-19T17:44:17.865Z,29.80
2017-06-19T17:46:45.905Z,29.80
2017-06-19T17:49:14.517Z,29.50
2017-06-19T17:51:42.190Z,29.50
2017-06-19T17:54:09.872Z,29.50
2017-06-19T17:56:37.522Z,29.40
2017-06-19T17:59:05.254Z,29.20
2017-06-19T18:01:32.981Z,29.20
2017-06-19T18:04:00.652Z,29.40
2017-06-19T18:06:28.299Z,29.40
2017-06-19T18:08:55.973Z,29.30
2017-06-19T18:11:23.643Z,29.20
2017-06-19T18:13:52.579Z,29.10
2017-06-19T18:16:20.231Z,29.00
2017-06-19T18:18:47.907Z,29.00
2017-06-19T18:21:15.671Z,29.00
2017-06-19T18:23:43.465Z,29.00
2017-06-19T18:26:11.365Z,29.10
2017-06-19T18:28:39.041Z,29.10
2017-06-19T18:31:07.116Z,29.20
2017-06-19T18:33:34.816Z,29.20
2017-06-19T18:36:02.468Z,29.20
2017-06-19T18:38:30.171Z,29.10
2017-06-19T18:40:59.291Z,29.10
2017-06-19T18:43:27.660Z,29.00
2017-06-19T18:45:56.148Z,28.90
2017-06-19T18:48:23.923Z,28.90
2017-06-19T18:50:51.602Z,28.80
2017-06-19T18:53:19.675Z,28.80
2017-06-19T18:55:47.341Z,28.70
2017-06-19T18:58:14.993Z,28.60
2017-06-19T19:00:42.671Z,28.50
2017-06-19T19:03:10.328Z,28.40
2017-06-19T19:05:38.029Z,28.40
2017-06-19T19:08:06.505Z,28.40
2017-06-19T19:10:34.273Z,28.30
2017-06-19T19:13:02.058Z,28.10
2017-06-19T19:15:30.676Z,28.00
2017-06-19T19:17:58.350Z,28.00
2017-06-19T19:20:26.314Z,28.00
2017-06-19T19:22:54.534Z,27.90
2017-06-19T19:25:22.730Z,27.80
2017-06-19T19:27:51.157Z,27.70
2017-06-19T19:30:18.982Z,27.70
2017-06-19T19:32:47.782Z,27.50
2017-06-19T19:35:16.366Z,27.50
2017-06-19T19:37:44.056Z,27.50
2017-06-19T19:40:11.741Z,27.40
2017-06-19T19:42:39.436Z,27.30
2017-06-19T19:45:08.692Z,27.10
2017-06-19T19:47:36.359Z,27.10
2017-06-19T19:50:04.051Z,27.10
2017-06-19T19:52:33.166Z,27.00
2017-06-19T19:55:01.251Z,27.00
2017-06-19T19:57:29.866Z,27.00
2017-06-19T19:59:57.537Z,27.00
2017-06-19T20:02:25.209Z,26.90
2017-06-19T20:04:52.875Z,26.90
2017-06-19T20:07:20.595Z,26.70
2017-06-19T20:09:48.278Z,26.50
2017-06-19T20:12:15.954Z,26.50
2017-06-19T20:14:43.607Z,26.50
2017-06-19T20:17:11.285Z,26.40
2017-06-19T20:19:38.942Z,26.50
2017-06-19T20:22:06.942Z,26.30
2017-06-19T20:24:35.430Z,26.20
2017-06-19T20:27:03.843Z,26.10
2017-06-19T20:29:31.534Z,26.10
2017-06-19T20:31:59.255Z,26.10
2017-06-19T20:34:27.118Z,26.10
2017-06-19T20:36:54.873Z,26.00
2017-06-19T20:39:22.968Z,26.00
2017-06-19T20:41:50.618Z,25.90
2017-06-19T20:44:18.258Z,25.80
2017-06-19T20:46:46.693Z,25.70
2017-06-19T20:49:14.357Z,25.70
2017-06-19T20:51:42.310Z,25.70
2017-06-19T20:54:09.950Z,25.60
2017-06-19T20:56:37.620Z,25.60
2017-06-19T20:59:05.658Z,25.70
2017-06-19T21:01:34.091Z,25.70
2017-06-19T21:04:01.793Z,25.70
2017-06-19T21:06:30.650Z,25.50
2017-06-19T21:08:58.383Z,25.50
2017-06-19T21:11:26.032Z,25.40
2017-06-19T21:13:54.013Z,25.40
2017-06-19T21:16:21.776Z,25.30
2017-06-19T21:18:49.552Z,25.30
2017-06-19T21:21:17.752Z,25.10
2017-06-19T21:23:45.682Z,24.80
2017-06-19T21:26:13.392Z,24.80
2017-06-19T21:28:41.398Z,24.80
